sensor_id;sensor_type;location;lat;lon;timestamp;P1;durP1;ratioP1;P2;durP2;ratioP2
23714;SDS011;12036;50.858;4.472;2022-08-04T00:00:23;6.45;;;2.53;;
23714;SDS011;12036;50.858;4.472;2022-08-04T00:10:35;6.20;;;2.47;;
23714;SDS011;12036;50.858;4.472;2022-08-04T00:13:04;3.47;;;2.20;;
23714;SDS011;12036;50.858;4.472;2022-08-04T00:15:32;11.35;;;2.40;;
23714;SDS011;12036;50.858;4.472;2022-08-04T00:17:59;7.07;;;2.17;;
23714;SDS011;12036;50.858;4.472;2022-08-04T00:20:28;4.55;;;2.75;;
23714;SDS011;12036;50.858;4.472;2022-08-04T00:22:56;7.28;;;2.20;;
23714;SDS011;12036;50.858;4.472;2022-08-04T00:25:23;5.97;;;2.22;;
23714;SDS011;12036;50.858;4.472;2022-08-04T00:27:50;6.97;;;2.65;;
23714;SDS011;12036;50.858;4.472;2022-08-04T00:30:16;6.95;;;2.35;;
23714;SDS011;12036;50.858;4.472;2022-08-04T00:32:42;7.43;;;2.25;;
23714;SDS011;12036;50.858;4.472;2022-08-04T00:35:08;9.30;;;2.25;;
23714;SDS011;12036;50.858;4.472;2022-08-04T00:37:36;6.28;;;2.67;;
23714;SDS011;12036;50.858;4.472;2022-08-04T00:40:06;6.68;;;2.28;;
23714;SDS011;12036;50.858;4.472;2022-08-04T00:42:48;5.93;;;2.50;;
23714;SDS011;12036;50.858;4.472;2022-08-04T00:46:03;6.90;;;2.38;;
23714;SDS011;12036;50.858;4.472;2022-08-04T00:54:25;9.15;;;2.40;;
23714;SDS011;12036;50.858;4.472;2022-08-04T00:57:16;7.38;;;2.53;;
23714;SDS011;12036;50.858;4.472;2022-08-04T01:00:07;4.97;;;2.45;;
23714;SDS011;12036;50.858;4.472;2022-08-04T01:07:49;4.85;;;2.72;;
23714;SDS011;12036;50.858;4.472;2022-08-04T01:18:20;6.30;;;2.40;;
23714;SDS011;12036;50.858;4.472;2022-08-04T01:29:14;7.18;;;2.45;;
23714;SDS011;12036;50.858;4.472;2022-08-04T01:34:40;5.80;;;2.30;;
23714;SDS011;12036;50.858;4.472;2022-08-04T01:39:42;6.80;;;2.97;;
23714;SDS011;12036;50.858;4.472;2022-08-04T01:42:14;7.00;;;2.45;;
23714;SDS011;12036;50.858;4.472;2022-08-04T01:44:42;5.95;;;2.65;;
23714;SDS011;12036;50.858;4.472;2022-08-04T01:47:12;7.47;;;2.90;;
23714;SDS011;12036;50.858;4.472;2022-08-04T01:49:41;6.93;;;2.72;;
23714;SDS011;12036;50.858;4.472;2022-08-04T01:52:10;4.05;;;2.65;;
23714;SDS011;12036;50.858;4.472;2022-08-04T01:54:41;8.70;;;2.45;;
23714;SDS011;12036;50.858;4.472;2022-08-04T01:57:08;10.30;;;2.70;;
23714;SDS011;12036;50.858;4.472;2022-08-04T01:59:34;12.18;;;2.63;;
23714;SDS011;12036;50.858;4.472;2022-08-04T02:02:03;5.97;;;2.55;;
23714;SDS011;12036;50.858;4.472;2022-08-04T02:04:30;4.05;;;2.47;;
23714;SDS011;12036;50.858;4.472;2022-08-04T02:07:01;9.30;;;2.67;;
23714;SDS011;12036;50.858;4.472;2022-08-04T02:12:26;4.95;;;2.38;;
23714;SDS011;12036;50.858;4.472;2022-08-04T02:14:59;7.45;;;2.95;;
23714;SDS011;12036;50.858;4.472;2022-08-04T02:17:56;8.57;;;2.47;;
23714;SDS011;12036;50.858;4.472;2022-08-04T02:20:45;8.07;;;2.90;;
23714;SDS011;12036;50.858;4.472;2022-08-04T02:23:14;6.70;;;2.53;;
23714;SDS011;12036;50.858;4.472;2022-08-04T02:25:56;9.77;;;2.90;;
23714;SDS011;12036;50.858;4.472;2022-08-04T02:28:46;6.65;;;3.10;;
23714;SDS011;12036;50.858;4.472;2022-08-04T02:31:30;8.15;;;2.80;;
23714;SDS011;12036;50.858;4.472;2022-08-04T02:34:05;15.75;;;3.78;;
23714;SDS011;12036;50.858;4.472;2022-08-04T02:36:49;8.02;;;2.60;;
23714;SDS011;12036;50.858;4.472;2022-08-04T02:39:17;6.68;;;2.72;;
23714;SDS011;12036;50.858;4.472;2022-08-04T02:41:45;6.00;;;2.58;;
23714;SDS011;12036;50.858;4.472;2022-08-04T02:44:12;6.85;;;3.10;;
23714;SDS011;12036;50.858;4.472;2022-08-04T02:46:44;6.93;;;3.05;;
23714;SDS011;12036;50.858;4.472;2022-08-04T02:49:12;5.45;;;2.92;;
23714;SDS011;12036;50.858;4.472;2022-08-04T02:51:40;8.20;;;3.25;;
23714;SDS011;12036;50.858;4.472;2022-08-04T02:54:09;8.90;;;2.70;;
23714;SDS011;12036;50.858;4.472;2022-08-04T02:56:35;10.32;;;2.85;;
23714;SDS011;12036;50.858;4.472;2022-08-04T02:59:05;7.50;;;3.00;;
23714;SDS011;12036;50.858;4.472;2022-08-04T03:01:33;9.70;;;2.90;;
23714;SDS011;12036;50.858;4.472;2022-08-04T03:04:20;4.65;;;2.65;;
23714;SDS011;12036;50.858;4.472;2022-08-04T03:26:28;5.20;;;2.60;;
23714;SDS011;12036;50.858;4.472;2022-08-04T03:44:11;7.00;;;2.83;;
23714;SDS011;12036;50.858;4.472;2022-08-04T03:52:39;11.82;;;3.70;;
23714;SDS011;12036;50.858;4.472;2022-08-04T03:58:24;9.93;;;3.75;;
23714;SDS011;12036;50.858;4.472;2022-08-04T04:09:48;8.57;;;3.60;;
23714;SDS011;12036;50.858;4.472;2022-08-04T04:15:05;9.00;;;3.60;;
23714;SDS011;12036;50.858;4.472;2022-08-04T04:23:48;8.93;;;4.57;;
23714;SDS011;12036;50.858;4.472;2022-08-04T04:35:40;6.72;;;4.80;;
23714;SDS011;12036;50.858;4.472;2022-08-04T04:46:18;7.32;;;4.50;;
23714;SDS011;12036;50.858;4.472;2022-08-04T04:48:53;8.85;;;3.72;;
23714;SDS011;12036;50.858;4.472;2022-08-04T04:51:42;7.95;;;3.60;;
23714;SDS011;12036;50.858;4.472;2022-08-04T04:57:14;7.45;;;2.83;;
23714;SDS011;12036;50.858;4.472;2022-08-04T05:00:04;8.52;;;2.90;;
23714;SDS011;12036;50.858;4.472;2022-08-04T05:14:05;10.17;;;3.17;;
23714;SDS011;12036;50.858;4.472;2022-08-04T05:16:39;8.77;;;3.05;;
23714;SDS011;12036;50.858;4.472;2022-08-04T05:25:04;12.77;;;3.80;;
23714;SDS011;12036;50.858;4.472;2022-08-04T05:28:01;10.40;;;3.67;;
23714;SDS011;12036;50.858;4.472;2022-08-04T05:30:37;13.00;;;4.68;;
23714;SDS011;12036;50.858;4.472;2022-08-04T05:33:21;12.13;;;3.70;;
23714;SDS011;12036;50.858;4.472;2022-08-04T05:35:57;8.70;;;4.20;;
23714;SDS011;12036;50.858;4.472;2022-08-04T05:38:28;20.67;;;4.38;;
23714;SDS011;12036;50.858;4.472;2022-08-04T05:40:59;8.73;;;3.53;;
23714;SDS011;12036;50.858;4.472;2022-08-04T05:43:26;11.82;;;3.95;;
23714;SDS011;12036;50.858;4.472;2022-08-04T05:45:52;10.63;;;3.75;;
23714;SDS011;12036;50.858;4.472;2022-08-04T05:48:19;13.77;;;4.20;;
23714;SDS011;12036;50.858;4.472;2022-08-04T05:50:45;9.00;;;3.10;;
23714;SDS011;12036;50.858;4.472;2022-08-04T05:53:12;14.43;;;3.53;;
23714;SDS011;12036;50.858;4.472;2022-08-04T05:55:40;11.25;;;3.65;;
23714;SDS011;12036;50.858;4.472;2022-08-04T05:58:05;8.00;;;3.00;;
23714;SDS011;12036;50.858;4.472;2022-08-04T06:00:31;15.77;;;3.72;;
23714;SDS011;12036;50.858;4.472;2022-08-04T06:02:59;8.60;;;2.90;;
23714;SDS011;12036;50.858;4.472;2022-08-04T06:05:26;6.22;;;2.75;;
23714;SDS011;12036;50.858;4.472;2022-08-04T06:07:53;14.20;;;2.88;;
23714;SDS011;12036;50.858;4.472;2022-08-04T06:10:18;9.65;;;2.38;;
23714;SDS011;12036;50.858;4.472;2022-08-04T06:15:15;8.20;;;1.90;;
23714;SDS011;12036;50.858;4.472;2022-08-04T06:17:52;5.00;;;2.00;;
23714;SDS011;12036;50.858;4.472;2022-08-04T06:20:21;9.32;;;2.42;;
23714;SDS011;12036;50.858;4.472;2022-08-04T06:22:54;8.85;;;2.33;;
23714;SDS011;12036;50.858;4.472;2022-08-04T06:25:23;8.30;;;2.08;;
23714;SDS011;12036;50.858;4.472;2022-08-04T06:27:53;9.10;;;1.83;;
23714;SDS011;12036;50.858;4.472;2022-08-04T06:30:20;10.80;;;1.73;;
23714;SDS011;12036;50.858;4.472;2022-08-04T06:32:50;12.48;;;2.47;;
23714;SDS011;12036;50.858;4.472;2022-08-04T06:35:21;7.37;;;2.67;;
23714;SDS011;12036;50.858;4.472;2022-08-04T06:37:48;8.55;;;1.70;;
23714;SDS011;12036;50.858;4.472;2022-08-04T06:40:17;7.50;;;2.20;;
23714;SDS011;12036;50.858;4.472;2022-08-04T06:42:44;7.72;;;2.17;;
23714;SDS011;12036;50.858;4.472;2022-08-04T06:45:12;6.57;;;1.75;;
23714;SDS011;12036;50.858;4.472;2022-08-04T06:47:39;8.57;;;2.20;;
23714;SDS011;12036;50.858;4.472;2022-08-04T06:50:07;12.65;;;2.20;;
23714;SDS011;12036;50.858;4.472;2022-08-04T06:52:34;8.88;;;1.60;;
23714;SDS011;12036;50.858;4.472;2022-08-04T06:55:00;7.38;;;1.90;;
23714;SDS011;12036;50.858;4.472;2022-08-04T06:57:26;9.77;;;2.00;;
23714;SDS011;12036;50.858;4.472;2022-08-04T06:59:58;12.98;;;2.20;;
23714;SDS011;12036;50.858;4.472;2022-08-04T07:02:49;11.20;;;2.05;;
23714;SDS011;12036;50.858;4.472;2022-08-04T07:05:17;7.00;;;1.60;;
23714;SDS011;12036;50.858;4.472;2022-08-04T07:07:44;7.38;;;1.70;;
23714;SDS011;12036;50.858;4.472;2022-08-04T07:10:10;6.85;;;1.98;;
23714;SDS011;12036;50.858;4.472;2022-08-04T07:12:37;6.38;;;1.50;;
23714;SDS011;12036;50.858;4.472;2022-08-04T07:15:04;8.90;;;2.00;;
23714;SDS011;12036;50.858;4.472;2022-08-04T07:17:32;7.18;;;2.10;;
23714;SDS011;12036;50.858;4.472;2022-08-04T07:20:02;9.60;;;3.20;;
23714;SDS011;12036;50.858;4.472;2022-08-04T07:22:29;7.55;;;1.50;;
23714;SDS011;12036;50.858;4.472;2022-08-04T07:24:55;4.30;;;1.70;;
23714;SDS011;12036;50.858;4.472;2022-08-04T07:27:22;6.10;;;2.50;;
23714;SDS011;12036;50.858;4.472;2022-08-04T07:29:49;11.52;;;2.00;;
23714;SDS011;12036;50.858;4.472;2022-08-04T07:32:16;10.88;;;2.00;;
23714;SDS011;12036;50.858;4.472;2022-08-04T07:34:43;8.50;;;2.53;;
23714;SDS011;12036;50.858;4.472;2022-08-04T07:37:10;8.30;;;1.95;;
23714;SDS011;12036;50.858;4.472;2022-08-04T07:39:36;9.07;;;2.00;;
23714;SDS011;12036;50.858;4.472;2022-08-04T07:42:03;14.60;;;2.70;;
23714;SDS011;12036;50.858;4.472;2022-08-04T07:44:34;7.05;;;2.20;;
23714;SDS011;12036;50.858;4.472;2022-08-04T07:47:02;12.98;;;2.08;;
23714;SDS011;12036;50.858;4.472;2022-08-04T07:49:30;11.20;;;1.98;;
23714;SDS011;12036;50.858;4.472;2022-08-04T07:51:56;7.85;;;2.08;;
23714;SDS011;12036;50.858;4.472;2022-08-04T07:54:23;7.60;;;2.45;;
23714;SDS011;12036;50.858;4.472;2022-08-04T07:56:49;7.53;;;1.95;;
23714;SDS011;12036;50.858;4.472;2022-08-04T07:59:16;7.82;;;1.90;;
23714;SDS011;12036;50.858;4.472;2022-08-04T08:01:42;9.98;;;2.28;;
23714;SDS011;12036;50.858;4.472;2022-08-04T08:04:09;9.38;;;3.15;;
23714;SDS011;12036;50.858;4.472;2022-08-04T08:06:36;8.77;;;2.45;;
23714;SDS011;12036;50.858;4.472;2022-08-04T08:09:14;6.50;;;2.40;;
23714;SDS011;12036;50.858;4.472;2022-08-04T08:11:42;9.30;;;2.90;;
23714;SDS011;12036;50.858;4.472;2022-08-04T08:14:10;8.60;;;2.80;;
23714;SDS011;12036;50.858;4.472;2022-08-04T08:16:36;8.57;;;2.70;;
23714;SDS011;12036;50.858;4.472;2022-08-04T08:19:03;10.35;;;2.67;;
23714;SDS011;12036;50.858;4.472;2022-08-04T08:21:29;8.80;;;3.03;;
23714;SDS011;12036;50.858;4.472;2022-08-04T08:23:55;10.00;;;3.13;;
23714;SDS011;12036;50.858;4.472;2022-08-04T08:26:21;10.07;;;2.95;;
23714;SDS011;12036;50.858;4.472;2022-08-04T08:28:47;6.55;;;2.85;;
23714;SDS011;12036;50.858;4.472;2022-08-04T08:31:12;11.05;;;3.30;;
23714;SDS011;12036;50.858;4.472;2022-08-04T08:33:38;8.70;;;2.88;;
23714;SDS011;12036;50.858;4.472;2022-08-04T08:53:01;11.77;;;3.33;;
23714;SDS011;12036;50.858;4.472;2022-08-04T08:55:41;11.25;;;3.22;;
23714;SDS011;12036;50.858;4.472;2022-08-04T09:09:45;9.82;;;4.85;;
23714;SDS011;12036;50.858;4.472;2022-08-04T09:15:16;9.30;;;5.00;;
23714;SDS011;12036;50.858;4.472;2022-08-04T09:17:53;13.65;;;5.40;;
23714;SDS011;12036;50.858;4.472;2022-08-04T09:23:23;17.55;;;8.35;;
23714;SDS011;12036;50.858;4.472;2022-08-04T09:28:42;17.88;;;8.10;;
23714;SDS011;12036;50.858;4.472;2022-08-04T09:31:20;20.10;;;9.10;;
23714;SDS011;12036;50.858;4.472;2022-08-04T09:37:00;21.33;;;11.57;;
23714;SDS011;12036;50.858;4.472;2022-08-04T09:40:17;24.60;;;12.18;;
23714;SDS011;12036;50.858;4.472;2022-08-04T09:45:55;36.38;;;14.20;;
23714;SDS011;12036;50.858;4.472;2022-08-04T09:54:13;36.00;;;17.15;;
23714;SDS011;12036;50.858;4.472;2022-08-04T09:59:27;35.13;;;15.05;;
23714;SDS011;12036;50.858;4.472;2022-08-04T10:02:00;42.58;;;15.93;;
23714;SDS011;12036;50.858;4.472;2022-08-04T10:04:31;37.72;;;15.70;;
23714;SDS011;12036;50.858;4.472;2022-08-04T10:15:20;34.67;;;15.50;;
23714;SDS011;12036;50.858;4.472;2022-08-04T10:18:16;27.90;;;15.52;;
23714;SDS011;12036;50.858;4.472;2022-08-04T10:29:17;31.55;;;15.50;;
23714;SDS011;12036;50.858;4.472;2022-08-04T10:37:20;25.25;;;14.75;;
23714;SDS011;12036;50.858;4.472;2022-08-04T10:40:01;28.38;;;15.18;;
23714;SDS011;12036;50.858;4.472;2022-08-04T10:43:04;25.45;;;15.35;;
23714;SDS011;12036;50.858;4.472;2022-08-04T10:46:16;28.15;;;15.63;;
23714;SDS011;12036;50.858;4.472;2022-08-04T10:52:07;28.63;;;15.68;;
23714;SDS011;12036;50.858;4.472;2022-08-04T10:54:59;27.10;;;14.68;;
23714;SDS011;12036;50.858;4.472;2022-08-04T10:57:47;26.75;;;14.65;;
23714;SDS011;12036;50.858;4.472;2022-08-04T11:00:18;22.33;;;14.07;;
23714;SDS011;12036;50.858;4.472;2022-08-04T11:03:00;25.60;;;14.70;;
23714;SDS011;12036;50.858;4.472;2022-08-04T11:05:48;24.70;;;12.90;;
23714;SDS011;12036;50.858;4.472;2022-08-04T11:08:17;16.35;;;10.10;;
23714;SDS011;12036;50.858;4.472;2022-08-04T11:11:00;22.13;;;11.93;;
23714;SDS011;12036;50.858;4.472;2022-08-04T11:13:31;19.77;;;11.18;;
23714;SDS011;12036;50.858;4.472;2022-08-04T11:16:03;16.48;;;10.10;;
23714;SDS011;12036;50.858;4.472;2022-08-04T11:18:34;18.45;;;11.05;;
23714;SDS011;12036;50.858;4.472;2022-08-04T11:21:13;17.95;;;9.85;;
23714;SDS011;12036;50.858;4.472;2022-08-04T11:23:45;12.43;;;8.55;;
23714;SDS011;12036;50.858;4.472;2022-08-04T11:26:27;13.75;;;8.48;;
23714;SDS011;12036;50.858;4.472;2022-08-04T11:29:20;15.27;;;8.88;;
23714;SDS011;12036;50.858;4.472;2022-08-04T11:31:47;21.60;;;9.43;;
23714;SDS011;12036;50.858;4.472;2022-08-04T11:39:32;15.05;;;9.95;;
23714;SDS011;12036;50.858;4.472;2022-08-04T11:44:48;15.60;;;10.35;;
23714;SDS011;12036;50.858;4.472;2022-08-04T11:49:51;23.85;;;12.35;;
23714;SDS011;12036;50.858;4.472;2022-08-04T11:52:22;16.67;;;10.65;;
23714;SDS011;12036;50.858;4.472;2022-08-04T11:54:50;17.77;;;10.98;;
23714;SDS011;12036;50.858;4.472;2022-08-04T11:57:16;17.73;;;10.90;;
23714;SDS011;12036;50.858;4.472;2022-08-04T11:59:42;17.25;;;10.50;;
23714;SDS011;12036;50.858;4.472;2022-08-04T12:04:46;17.73;;;8.90;;
23714;SDS011;12036;50.858;4.472;2022-08-04T12:07:22;15.18;;;9.48;;
23714;SDS011;12036;50.858;4.472;2022-08-04T12:12:40;11.13;;;8.35;;
23714;SDS011;12036;50.858;4.472;2022-08-04T12:15:18;14.15;;;7.75;;
23714;SDS011;12036;50.858;4.472;2022-08-04T12:20:42;12.73;;;7.22;;
23714;SDS011;12036;50.858;4.472;2022-08-04T12:23:20;8.73;;;6.28;;
23714;SDS011;12036;50.858;4.472;2022-08-04T12:25:49;11.90;;;5.82;;
23714;SDS011;12036;50.858;4.472;2022-08-04T12:28:25;10.70;;;7.43;;
23714;SDS011;12036;50.858;4.472;2022-08-04T12:31:01;7.47;;;5.43;;
23714;SDS011;12036;50.858;4.472;2022-08-04T12:33:33;9.02;;;5.13;;
23714;SDS011;12036;50.858;4.472;2022-08-04T12:41:59;11.18;;;5.05;;
23714;SDS011;12036;50.858;4.472;2022-08-04T12:44:36;9.88;;;4.95;;
23714;SDS011;12036;50.858;4.472;2022-08-04T12:47:08;9.35;;;4.47;;
23714;SDS011;12036;50.858;4.472;2022-08-04T12:52:06;10.13;;;6.07;;
23714;SDS011;12036;50.858;4.472;2022-08-04T12:54:34;7.70;;;4.07;;
23714;SDS011;12036;50.858;4.472;2022-08-04T12:57:02;12.40;;;5.38;;
23714;SDS011;12036;50.858;4.472;2022-08-04T12:59:36;10.98;;;5.30;;
23714;SDS011;12036;50.858;4.472;2022-08-04T13:02:11;7.20;;;4.43;;
23714;SDS011;12036;50.858;4.472;2022-08-04T13:04:57;7.95;;;4.15;;
23714;SDS011;12036;50.858;4.472;2022-08-04T13:07:26;8.35;;;5.03;;
23714;SDS011;12036;50.858;4.472;2022-08-04T13:09:59;9.68;;;4.60;;
23714;SDS011;12036;50.858;4.472;2022-08-04T13:12:30;9.18;;;5.55;;
23714;SDS011;12036;50.858;4.472;2022-08-04T13:14:58;8.85;;;5.00;;
23714;SDS011;12036;50.858;4.472;2022-08-04T13:17:44;10.75;;;5.90;;
23714;SDS011;12036;50.858;4.472;2022-08-04T13:20:23;8.43;;;5.68;;
23714;SDS011;12036;50.858;4.472;2022-08-04T13:22:57;14.60;;;5.97;;
23714;SDS011;12036;50.858;4.472;2022-08-04T13:25:27;7.00;;;5.13;;
23714;SDS011;12036;50.858;4.472;2022-08-04T13:27:54;8.18;;;4.70;;
23714;SDS011;12036;50.858;4.472;2022-08-04T13:30:21;5.85;;;3.70;;
23714;SDS011;12036;50.858;4.472;2022-08-04T13:32:51;6.43;;;4.18;;
23714;SDS011;12036;50.858;4.472;2022-08-04T13:35:22;7.70;;;4.95;;
23714;SDS011;12036;50.858;4.472;2022-08-04T13:37:50;5.00;;;4.00;;
23714;SDS011;12036;50.858;4.472;2022-08-04T13:40:18;7.65;;;4.20;;
23714;SDS011;12036;50.858;4.472;2022-08-04T13:42:47;6.45;;;3.67;;
23714;SDS011;12036;50.858;4.472;2022-08-04T13:45:23;8.80;;;4.43;;
23714;SDS011;12036;50.858;4.472;2022-08-04T13:47:50;6.35;;;3.40;;
23714;SDS011;12036;50.858;4.472;2022-08-04T13:50:24;10.27;;;3.30;;
23714;SDS011;12036;50.858;4.472;2022-08-04T13:52:54;5.35;;;3.47;;
23714;SDS011;12036;50.858;4.472;2022-08-04T13:57:55;5.10;;;2.92;;
23714;SDS011;12036;50.858;4.472;2022-08-04T14:00:57;6.70;;;3.50;;
23714;SDS011;12036;50.858;4.472;2022-08-04T14:06:17;6.10;;;3.15;;
23714;SDS011;12036;50.858;4.472;2022-08-04T14:08:55;6.57;;;3.65;;
23714;SDS011;12036;50.858;4.472;2022-08-04T14:11:33;5.75;;;3.10;;
23714;SDS011;12036;50.858;4.472;2022-08-04T14:14:11;7.20;;;3.55;;
23714;SDS011;12036;50.858;4.472;2022-08-04T14:24:58;9.45;;;3.42;;
23714;SDS011;12036;50.858;4.472;2022-08-04T14:27:26;7.65;;;3.33;;
23714;SDS011;12036;50.858;4.472;2022-08-04T14:29:53;9.18;;;3.80;;
23714;SDS011;12036;50.858;4.472;2022-08-04T14:32:19;7.88;;;3.70;;
23714;SDS011;12036;50.858;4.472;2022-08-04T14:34:45;6.82;;;3.45;;
23714;SDS011;12036;50.858;4.472;2022-08-04T14:37:15;8.85;;;3.58;;
23714;SDS011;12036;50.858;4.472;2022-08-04T14:39:44;5.03;;;3.58;;
23714;SDS011;12036;50.858;4.472;2022-08-04T14:42:12;8.18;;;3.33;;
23714;SDS011;12036;50.858;4.472;2022-08-04T14:44:55;6.00;;;2.85;;
23714;SDS011;12036;50.858;4.472;2022-08-04T14:47:55;9.60;;;3.40;;
23714;SDS011;12036;50.858;4.472;2022-08-04T14:50:14;6.63;;;3.10;;
23714;SDS011;12036;50.858;4.472;2022-08-04T14:52:40;4.45;;;3.20;;
23714;SDS011;12036;50.858;4.472;2022-08-04T14:55:16;5.35;;;3.28;;
23714;SDS011;12036;50.858;4.472;2022-08-04T14:57:46;9.20;;;3.20;;
23714;SDS011;12036;50.858;4.472;2022-08-04T15:00:21;5.72;;;3.15;;
23714;SDS011;12036;50.858;4.472;2022-08-04T15:02:53;6.30;;;3.53;;
23714;SDS011;12036;50.858;4.472;2022-08-04T15:05:24;7.45;;;3.05;;
23714;SDS011;12036;50.858;4.472;2022-08-04T15:07:50;6.18;;;3.00;;
23714;SDS011;12036;50.858;4.472;2022-08-04T15:10:18;6.53;;;2.50;;
23714;SDS011;12036;50.858;4.472;2022-08-04T15:12:44;9.32;;;3.17;;
23714;SDS011;12036;50.858;4.472;2022-08-04T15:15:10;5.60;;;2.72;;
23714;SDS011;12036;50.858;4.472;2022-08-04T15:17:36;6.47;;;3.83;;
23714;SDS011;12036;50.858;4.472;2022-08-04T15:20:03;6.60;;;3.28;;
23714;SDS011;12036;50.858;4.472;2022-08-04T15:22:29;7.35;;;3.20;;
23714;SDS011;12036;50.858;4.472;2022-08-04T15:24:55;8.50;;;3.40;;
23714;SDS011;12036;50.858;4.472;2022-08-04T15:27:21;8.95;;;2.72;;
23714;SDS011;12036;50.858;4.472;2022-08-04T15:29:50;7.50;;;2.78;;
23714;SDS011;12036;50.858;4.472;2022-08-04T15:32:19;4.63;;;2.90;;
23714;SDS011;12036;50.858;4.472;2022-08-04T15:34:49;8.82;;;2.95;;
23714;SDS011;12036;50.858;4.472;2022-08-04T15:37:26;7.50;;;3.33;;
23714;SDS011;12036;50.858;4.472;2022-08-04T15:45:50;5.32;;;2.97;;
23714;SDS011;12036;50.858;4.472;2022-08-04T15:53:20;12.30;;;3.03;;
23714;SDS011;12036;50.858;4.472;2022-08-04T15:55:46;8.32;;;3.33;;
23714;SDS011;12036;50.858;4.472;2022-08-04T15:58:12;6.32;;;3.00;;
23714;SDS011;12036;50.858;4.472;2022-08-04T16:05:59;6.97;;;4.20;;
23714;SDS011;12036;50.858;4.472;2022-08-04T16:08:24;6.13;;;3.78;;
23714;SDS011;12036;50.858;4.472;2022-08-04T16:10:51;5.28;;;3.85;;
23714;SDS011;12036;50.858;4.472;2022-08-04T16:13:18;7.45;;;4.43;;
23714;SDS011;12036;50.858;4.472;2022-08-04T16:15:46;6.15;;;4.05;;
23714;SDS011;12036;50.858;4.472;2022-08-04T16:21:04;7.07;;;3.85;;
23714;SDS011;12036;50.858;4.472;2022-08-04T16:29:02;5.00;;;2.22;;
23714;SDS011;12036;50.858;4.472;2022-08-04T16:32:07;4.75;;;1.95;;
23714;SDS011;12036;50.858;4.472;2022-08-04T16:34:36;4.93;;;2.10;;
23714;SDS011;12036;50.858;4.472;2022-08-04T16:37:04;7.03;;;1.80;;
23714;SDS011;12036;50.858;4.472;2022-08-04T16:39:32;8.73;;;2.40;;
23714;SDS011;12036;50.858;4.472;2022-08-04T16:41:58;2.65;;;1.65;;
23714;SDS011;12036;50.858;4.472;2022-08-04T16:49:21;5.15;;;2.22;;
23714;SDS011;12036;50.858;4.472;2022-08-04T16:51:47;5.82;;;2.40;;
23714;SDS011;12036;50.858;4.472;2022-08-04T16:54:13;3.47;;;1.83;;
23714;SDS011;12036;50.858;4.472;2022-08-04T16:56:39;6.95;;;2.30;;
23714;SDS011;12036;50.858;4.472;2022-08-04T16:59:09;5.70;;;2.13;;
23714;SDS011;12036;50.858;4.472;2022-08-04T17:01:36;4.55;;;2.00;;
23714;SDS011;12036;50.858;4.472;2022-08-04T17:04:10;4.32;;;2.15;;
23714;SDS011;12036;50.858;4.472;2022-08-04T17:06:37;7.22;;;2.22;;
23714;SDS011;12036;50.858;4.472;2022-08-04T17:09:05;4.40;;;2.30;;
23714;SDS011;12036;50.858;4.472;2022-08-04T17:11:37;7.05;;;2.65;;
23714;SDS011;12036;50.858;4.472;2022-08-04T17:14:03;4.28;;;2.20;;
23714;SDS011;12036;50.858;4.472;2022-08-04T17:16:29;10.40;;;2.03;;
23714;SDS011;12036;50.858;4.472;2022-08-04T17:18:58;5.20;;;2.42;;
23714;SDS011;12036;50.858;4.472;2022-08-04T17:21:27;9.65;;;2.38;;
23714;SDS011;12036;50.858;4.472;2022-08-04T17:23:56;3.83;;;2.28;;
23714;SDS011;12036;50.858;4.472;2022-08-04T17:26:23;8.68;;;2.35;;
23714;SDS011;12036;50.858;4.472;2022-08-04T17:28:53;3.50;;;2.00;;
23714;SDS011;12036;50.858;4.472;2022-08-04T17:31:20;3.50;;;2.20;;
23714;SDS011;12036;50.858;4.472;2022-08-04T17:33:49;5.50;;;2.28;;
23714;SDS011;12036;50.858;4.472;2022-08-04T17:36:17;4.47;;;1.73;;
23714;SDS011;12036;50.858;4.472;2022-08-04T17:39:31;2.97;;;2.08;;
23714;SDS011;12036;50.858;4.472;2022-08-04T17:41:37;6.80;;;1.83;;
23714;SDS011;12036;50.858;4.472;2022-08-04T17:44:03;4.70;;;1.70;;
23714;SDS011;12036;50.858;4.472;2022-08-04T17:46:35;3.30;;;1.60;;
23714;SDS011;12036;50.858;4.472;2022-08-04T17:51:39;6.22;;;1.63;;
23714;SDS011;12036;50.858;4.472;2022-08-04T17:56:50;5.25;;;1.65;;
23714;SDS011;12036;50.858;4.472;2022-08-04T18:01:52;5.05;;;2.10;;
23714;SDS011;12036;50.858;4.472;2022-08-04T18:06:48;6.40;;;1.95;;
23714;SDS011;12036;50.858;4.472;2022-08-04T18:09:20;3.65;;;2.03;;
23714;SDS011;12036;50.858;4.472;2022-08-04T18:11:54;6.25;;;1.77;;
23714;SDS011;12036;50.858;4.472;2022-08-04T18:14:36;6.63;;;2.00;;
23714;SDS011;12036;50.858;4.472;2022-08-04T18:17:03;4.03;;;2.00;;
23714;SDS011;12036;50.858;4.472;2022-08-04T18:19:29;4.07;;;1.90;;
23714;SDS011;12036;50.858;4.472;2022-08-04T18:21:54;3.83;;;1.60;;
23714;SDS011;12036;50.858;4.472;2022-08-04T18:24:20;5.80;;;2.00;;
23714;SDS011;12036;50.858;4.472;2022-08-04T18:26:46;4.82;;;2.00;;
23714;SDS011;12036;50.858;4.472;2022-08-04T18:29:12;7.88;;;1.95;;
23714;SDS011;12036;50.858;4.472;2022-08-04T18:31:37;4.40;;;2.22;;
23714;SDS011;12036;50.858;4.472;2022-08-04T18:34:06;7.28;;;2.67;;
23714;SDS011;12036;50.858;4.472;2022-08-04T18:36:32;3.53;;;2.05;;
23714;SDS011;12036;50.858;4.472;2022-08-04T18:39:00;4.28;;;2.28;;
23714;SDS011;12036;50.858;4.472;2022-08-04T18:41:27;7.50;;;2.42;;
23714;SDS011;12036;50.858;4.472;2022-08-04T18:43:54;5.18;;;2.08;;
23714;SDS011;12036;50.858;4.472;2022-08-04T18:46:21;4.45;;;1.85;;
23714;SDS011;12036;50.858;4.472;2022-08-04T18:48:47;4.60;;;1.92;;
23714;SDS011;12036;50.858;4.472;2022-08-04T18:51:13;4.90;;;1.98;;
23714;SDS011;12036;50.858;4.472;2022-08-04T18:53:38;9.43;;;2.15;;
23714;SDS011;12036;50.858;4.472;2022-08-04T18:56:04;4.28;;;2.10;;
23714;SDS011;12036;50.858;4.472;2022-08-04T18:58:30;8.93;;;2.13;;
23714;SDS011;12036;50.858;4.472;2022-08-04T19:00:56;7.93;;;1.92;;
23714;SDS011;12036;50.858;4.472;2022-08-04T19:03:22;7.05;;;1.90;;
23714;SDS011;12036;50.858;4.472;2022-08-04T19:05:47;6.40;;;2.88;;
23714;SDS011;12036;50.858;4.472;2022-08-04T19:08:14;3.58;;;2.03;;
23714;SDS011;12036;50.858;4.472;2022-08-04T19:10:39;6.53;;;1.92;;
23714;SDS011;12036;50.858;4.472;2022-08-04T19:13:05;6.53;;;2.40;;
23714;SDS011;12036;50.858;4.472;2022-08-04T19:15:31;6.50;;;2.33;;
23714;SDS011;12036;50.858;4.472;2022-08-04T19:17:56;9.27;;;2.65;;
23714;SDS011;12036;50.858;4.472;2022-08-04T19:20:22;9.05;;;2.30;;
23714;SDS011;12036;50.858;4.472;2022-08-04T19:22:48;4.43;;;2.58;;
23714;SDS011;12036;50.858;4.472;2022-08-04T19:25:14;6.78;;;2.70;;
23714;SDS011;12036;50.858;4.472;2022-08-04T19:27:40;7.22;;;2.65;;
23714;SDS011;12036;50.858;4.472;2022-08-04T19:30:06;6.80;;;2.88;;
23714;SDS011;12036;50.858;4.472;2022-08-04T19:32:33;6.35;;;2.75;;
23714;SDS011;12036;50.858;4.472;2022-08-04T19:34:58;11.32;;;3.25;;
23714;SDS011;12036;50.858;4.472;2022-08-04T19:37:24;7.47;;;3.15;;
23714;SDS011;12036;50.858;4.472;2022-08-04T19:39:50;9.07;;;3.25;;
23714;SDS011;12036;50.858;4.472;2022-08-04T19:42:16;8.65;;;3.85;;
23714;SDS011;12036;50.858;4.472;2022-08-04T19:44:42;9.82;;;4.10;;
23714;SDS011;12036;50.858;4.472;2022-08-04T19:47:08;6.88;;;3.83;;
23714;SDS011;12036;50.858;4.472;2022-08-04T19:49:34;11.10;;;4.80;;
23714;SDS011;12036;50.858;4.472;2022-08-04T19:51:59;11.45;;;4.50;;
23714;SDS011;12036;50.858;4.472;2022-08-04T19:54:25;7.30;;;4.68;;
23714;SDS011;12036;50.858;4.472;2022-08-04T19:56:50;11.07;;;5.10;;
23714;SDS011;12036;50.858;4.472;2022-08-04T19:59:16;15.45;;;6.07;;
23714;SDS011;12036;50.858;4.472;2022-08-04T20:01:42;11.63;;;5.03;;
23714;SDS011;12036;50.858;4.472;2022-08-04T20:04:07;12.95;;;5.85;;
23714;SDS011;12036;50.858;4.472;2022-08-04T20:06:33;13.15;;;5.40;;
23714;SDS011;12036;50.858;4.472;2022-08-04T20:08:58;13.30;;;5.65;;